Orlando, KY (40460)

8:55 AM EST on February 11, 2016 (GMT -0500)
Green Fish Hill | | Change Station
CLOSE
Current Station
Personal Weather Station
Location: Mount Vernon, KY
Elevation: 1214 ft
Nearby Weather Stations

Elev 1214 ft 37.42 °N, 84.33 °W | Updated 2 seconds ago

Overcast
Overcast
19.6 °F
Feels Like 20 °F
N
1.6
Wind Variable Wind from North
Gusts 4.5 mph

Today
High -- | Low -- °F
--% Chance of Precip.
Yesterday
High -- | Low -- °F
Precip. -- in
Pressure 30.24 in
Visibility 10.0 miles
Clouds Overcast 2500 ft
Windchill 20 °F
Dew Point 16 °F
Humidity 86%
Rainfall 0.00 in
Snow Depth Not available.
7:31 AM 6:11 PM
Waxing Crescent, 12% visible
METAR KI39 111335Z AUTO 00000KT 10SM OVC025 M07/M11 A3024 RMK AO2
Pressure 30.24 in
Visibility 10.0 miles
Clouds Overcast 2500 ft
Windchill 20 °F
Dew Point 16 °F
Humidity 86%
Rainfall 0.00 in
Snow Depth Not available.
7:31 AM 6:11 PM
Waxing Crescent, 12% visible
METAR KI39 111335Z AUTO 00000KT 10SM OVC025 M07/M11 A3024 RMK AO2

10-Day Weather Forecast

Almanac

Astronomy

Feb. 11, 2016 Rise Set
Actual Time
Civil Twilight
Nautical Twilight
Astronomical Twilight
Moon
Length of Visible Light
Length of Day
Tomorrow will be .
, % of the Moon is Illuminated

Today's Extremes

State Highs State Lows

Community

WunderPhotos

Upload Photos

1,892,046 photos uploaded!

WunderBlog® & News

Nearby

Air Quality

  Air Quality AQ Index Pollutant
Not available.

Snow Depth

Station Depth Elevation

Earthquake Activity

City Distance Mag. Time & Date
Minimum magnitude displayed is 2.5.

Coastal Water Temperatures

Place Temperature

Stations

Nearby Weather Stations

Station Location Temp. Windchill Dew Point Humidity Wind Precip. Elev Updated Type
                   

Watches & Warnings

There are currently no watches in effect.